createdAt,value
2017-02-06T00:00:13.019Z,1006.77
2017-02-06T00:01:23.839Z,1006.77
2017-02-06T00:02:34.559Z,1006.78
2017-02-06T00:03:45.275Z,1006.82
2017-02-06T00:04:56.006Z,1006.79
2017-02-06T00:06:06.973Z,1006.86
2017-02-06T00:07:17.678Z,1006.81
2017-02-06T00:08:28.251Z,1006.88
2017-02-06T00:09:38.579Z,1006.88
2017-02-06T00:10:49.291Z,1006.92
2017-02-06T00:12:00.318Z,1006.92
2017-02-06T00:13:11.045Z,1006.96
2017-02-06T00:14:20.581Z,1006.98
2017-02-06T00:15:30.926Z,1006.95
2017-02-06T00:16:40.841Z,1006.98
2017-02-06T00:17:51.796Z,1006.98
2017-02-06T00:19:02.514Z,1007.01
2017-02-06T00:20:12.881Z,1007
2017-02-06T00:21:23.602Z,1007.03
2017-02-06T00:22:33.929Z,1007.02
2017-02-06T00:23:43.711Z,1007.13
2017-02-06T00:24:54.028Z,1007.15
2017-02-06T00:26:04.345Z,1007.09
2017-02-06T00:27:14.689Z,1007.08
2017-02-06T00:28:25.013Z,1007.11
2017-02-06T00:29:35.190Z,1007.13
2017-02-06T00:30:45.513Z,1007.11
2017-02-06T00:31:55.848Z,1007.15
2017-02-06T00:33:06.559Z,1007.11
2017-02-06T00:34:16.870Z,1007.1
2017-02-06T00:35:27.454Z,1007.1
2017-02-06T00:36:38.165Z,1007.11
2017-02-06T00:37:48.489Z,1007.12
2017-02-06T00:38:58.853Z,1007.2
2017-02-06T00:40:09.177Z,1007.21
2017-02-06T00:41:19.403Z,1007.18
2017-02-06T00:42:30.152Z,1007.21
2017-02-06T00:43:40.472Z,1007.23
2017-02-06T00:44:50.793Z,1007.29
2017-02-06T00:46:01.113Z,1007.29
2017-02-06T00:47:11.730Z,1007.36
2017-02-06T00:48:21.666Z,1007.35
2017-02-06T00:49:32.000Z,1007.36
2017-02-06T00:50:42.706Z,1007.34
2017-02-06T00:51:53.019Z,1007.35
2017-02-06T00:53:03.605Z,1007.34
2017-02-06T00:54:14.069Z,1007.37
2017-02-06T00:55:23.593Z,1007.37
2017-02-06T00:56:33.944Z,1007.36
2017-02-06T00:57:44.321Z,1007.37
2017-02-06T00:58:55.277Z,1007.38
2017-02-06T01:00:05.596Z,1007.43
2017-02-06T01:01:15.932Z,1007.4
2017-02-06T01:02:26.543Z,1007.38
2017-02-06T01:03:37.253Z,1007.4
2017-02-06T01:04:47.823Z,1007.43
2017-02-06T01:05:58.136Z,1007.43
2017-02-06T01:07:08.853Z,1007.45
2017-02-06T01:08:19.182Z,1007.5
2017-02-06T01:09:29.515Z,1007.51
2017-02-06T01:10:40.085Z,1007.51
2017-02-06T01:11:50.006Z,1007.52
2017-02-06T01:13:00.719Z,1007.5
2017-02-06T01:14:11.441Z,1007.53
2017-02-06T01:15:21.768Z,1007.56
2017-02-06T01:16:32.802Z,1007.58
2017-02-06T01:17:42.734Z,1007.62
2017-02-06T01:18:53.451Z,1007.59
2017-02-06T01:20:03.776Z,1007.57
2017-02-06T01:21:13.707Z,1007.6
2017-02-06T01:22:24.715Z,1007.62
2017-02-06T01:23:34.647Z,1007.64
2017-02-06T01:24:44.967Z,1007.64
2017-02-06T01:25:55.683Z,1007.6
2017-02-06T01:27:06.010Z,1007.68
2017-02-06T01:28:16.970Z,1007.67
2017-02-06T01:29:26.486Z,1007.67
2017-02-06T01:30:36.801Z,1007.78
2017-02-06T01:31:47.513Z,1007.78
2017-02-06T01:32:57.441Z,1007.84
2017-02-06T01:34:08.057Z,1007.77
2017-02-06T01:35:18.387Z,1007.8
2017-02-06T01:36:28.702Z,1007.81
2017-02-06T01:37:39.021Z,1007.84
2017-02-06T01:38:49.735Z,1007.86
2017-02-06T01:40:00.356Z,1007.86
2017-02-06T01:41:11.070Z,1007.89
2017-02-06T01:42:21.782Z,1007.94
2017-02-06T01:43:32.499Z,1007.91
2017-02-06T01:44:43.226Z,1007.9
2017-02-06T01:45:54.192Z,1007.95
2017-02-06T01:47:04.503Z,1007.97
2017-02-06T01:48:14.810Z,1007.95
2017-02-06T01:49:25.136Z,1008
2017-02-06T01:50:35.059Z,1008
2017-02-06T01:51:45.613Z,1008.05
2017-02-06T01:52:55.990Z,1008.07
2017-02-06T01:54:06.330Z,1008.07
2017-02-06T01:55:16.687Z,1008.09
2017-02-06T01:56:26.605Z,1008.13
2017-02-06T01:57:37.568Z,1008.1
2017-02-06T01:58:47.883Z,1008.09
2017-02-06T01:59:58.208Z,1008.1
2017-02-06T02:01:08.126Z,1008.1
2017-02-06T02:02:18.448Z,1008.11
2017-02-06T02:03:29.510Z,1008.08
2017-02-06T02:04:39.829Z,1008.09
2017-02-06T02:05:49.760Z,1008.1
2017-02-06T02:06:59.686Z,1008.11
2017-02-06T02:08:10.005Z,1008.12
2017-02-06T02:09:20.617Z,1008.17
2017-02-06T02:10:31.343Z,1008.18
2017-02-06T02:11:41.670Z,1008.23
2017-02-06T02:12:52.010Z,1008.25
2017-02-06T02:14:02.316Z,1008.25
2017-02-06T02:15:13.332Z,1008.29
2017-02-06T02:16:23.253Z,1008.28
2017-02-06T02:17:33.560Z,1008.3
2017-02-06T02:18:43.481Z,1008.26
2017-02-06T02:19:53.813Z,1008.28
2017-02-06T02:21:03.993Z,1008.28
2017-02-06T02:22:13.912Z,1008.26
2017-02-06T02:23:24.232Z,1008.28
2017-02-06T02:24:34.949Z,1008.28
2017-02-06T02:25:45.268Z,1008.27
2017-02-06T02:26:55.884Z,1008.3
2017-02-06T02:28:06.600Z,1008.31
2017-02-06T02:29:16.513Z,1008.28
2017-02-06T02:30:27.239Z,1008.31
2017-02-06T02:31:37.908Z,1008.33
2017-02-06T02:32:48.149Z,1008.33
2017-02-06T02:33:58.469Z,1008.37
2017-02-06T02:35:09.189Z,1008.37
2017-02-06T02:36:19.544Z,1008.41
2017-02-06T02:37:29.864Z,1008.4
2017-02-06T02:38:40.486Z,1008.46
2017-02-06T02:39:51.200Z,1008.46
2017-02-06T02:41:01.513Z,1008.51
2017-02-06T02:42:11.830Z,1008.52
2017-02-06T02:43:22.140Z,1008.57
2017-02-06T02:44:32.757Z,1008.52
2017-02-06T02:45:43.471Z,1008.56
2017-02-06T02:46:54.188Z,1008.58
2017-02-06T02:48:04.500Z,1008.59
2017-02-06T02:49:14.818Z,1008.62
2017-02-06T02:50:25.425Z,1008.65
2017-02-06T02:51:35.733Z,1008.64
2017-02-06T02:52:46.445Z,1008.69
2017-02-06T02:53:56.757Z,1008.7
2017-02-06T02:55:07.471Z,1008.72
2017-02-06T02:56:18.089Z,1008.78
2017-02-06T02:57:28.802Z,1008.81
2017-02-06T02:58:39.132Z,1008.82
2017-02-06T02:59:49.054Z,1008.84
2017-02-06T03:00:59.772Z,1008.85
2017-02-06T03:02:10.348Z,1008.91
2017-02-06T03:03:20.661Z,1008.92
2017-02-06T03:04:31.077Z,1008.94
2017-02-06T03:05:41.388Z,1008.95
2017-02-06T03:06:51.709Z,1009.01
2017-02-06T03:08:02.725Z,1009.05
2017-02-06T03:09:13.043Z,1009.06
2017-02-06T03:10:23.762Z,1009.12
2017-02-06T03:11:34.482Z,1009.1
2017-02-06T03:12:44.797Z,1009.15
2017-02-06T03:13:55.572Z,1009.16
2017-02-06T03:15:06.284Z,1009.15
2017-02-06T03:16:16.601Z,1009.17
2017-02-06T03:17:27.315Z,1009.24
2017-02-06T03:18:37.644Z,1009.25
2017-02-06T03:19:48.216Z,1009.3
2017-02-06T03:20:58.146Z,1009.35
2017-02-06T03:22:08.463Z,1009.37
2017-02-06T03:23:18.778Z,1009.38
2017-02-06T03:24:28.703Z,1009.4
2017-02-06T03:25:39.714Z,1009.42
2017-02-06T03:26:50.434Z,1009.4
2017-02-06T03:28:00.357Z,1009.44
2017-02-06T03:29:11.064Z,1009.51
2017-02-06T03:30:21.430Z,1009.56
2017-02-06T03:31:32.003Z,1009.59
2017-02-06T03:32:41.939Z,1009.62
2017-02-06T03:33:52.252Z,1009.72
2017-02-06T03:35:02.566Z,1009.72
2017-02-06T03:36:12.892Z,1009.74
2017-02-06T03:37:23.462Z,1009.75
2017-02-06T03:38:33.773Z,1009.75
2017-02-06T03:39:44.482Z,1009.73
2017-02-06T03:40:55.193Z,1009.79
2017-02-06T03:42:05.131Z,1009.72
2017-02-06T03:43:15.743Z,1009.76
2017-02-06T03:44:25.660Z,1009.74
2017-02-06T03:45:36.370Z,1009.79
2017-02-06T03:46:46.876Z,1009.81
2017-02-06T03:47:57.193Z,1009.83
2017-02-06T03:49:08.211Z,1009.8
2017-02-06T03:50:17.731Z,1009.85
2017-02-06T03:51:28.444Z,1009.86
2017-02-06T03:52:38.764Z,1009.88
2017-02-06T03:53:49.074Z,1009.89
2017-02-06T03:55:00.092Z,1009.9
2017-02-06T03:56:10.806Z,1009.93
2017-02-06T03:57:20.726Z,1009.94
2017-02-06T03:58:31.430Z,1009.95
2017-02-06T03:59:41.743Z,1010
2017-02-06T04:00:52.697Z,1010.05
2017-02-06T04:02:03.404Z,1010.06
2017-02-06T04:03:13.737Z,1010.11
2017-02-06T04:04:24.056Z,1010.15
2017-02-06T04:05:34.769Z,1010.16
2017-02-06T04:06:44.981Z,1010.21
2017-02-06T04:07:54.517Z,1010.22
2017-02-06T04:09:05.239Z,1010.23
2017-02-06T04:10:15.157Z,1010.29
2017-02-06T04:11:25.733Z,1010.31
2017-02-06T04:12:36.303Z,1010.35
2017-02-06T04:13:46.243Z,1010.39
2017-02-06T04:14:56.959Z,1010.41
2017-02-06T04:16:06.880Z,1010.44
2017-02-06T04:17:17.583Z,1010.41
2017-02-06T04:18:28.549Z,1010.4
2017-02-06T04:19:38.479Z,1010.4
2017-02-06T04:20:49.202Z,1010.42
2017-02-06T04:21:59.559Z,1010.39
2017-02-06T04:23:10.274Z,1010.41
2017-02-06T04:24:21.242Z,1010.44
2017-02-06T04:25:31.586Z,1010.46
2017-02-06T04:26:41.509Z,1010.45
2017-02-06T04:27:51.432Z,1010.52
2017-02-06T04:29:01.366Z,1010.49
2017-02-06T04:30:12.331Z,1010.54
2017-02-06T04:31:22.249Z,1010.57
2017-02-06T04:32:32.577Z,1010.61
2017-02-06T04:33:42.885Z,1010.61
2017-02-06T04:34:53.202Z,1010.68
2017-02-06T04:36:03.815Z,1010.7
2017-02-06T04:37:14.148Z,1010.72
2017-02-06T04:38:24.851Z,1010.75
2017-02-06T04:39:35.173Z,1010.78
2017-02-06T04:40:45.489Z,1010.81
2017-02-06T04:41:56.510Z,1010.82
2017-02-06T04:43:06.879Z,1010.86
2017-02-06T04:44:17.603Z,1010.88
2017-02-06T04:45:27.922Z,1010.87
2017-02-06T04:46:38.230Z,1010.89
2017-02-06T04:47:48.457Z,1010.92
2017-02-06T04:48:58.793Z,1010.9
2017-02-06T04:50:09.105Z,1010.9
2017-02-06T04:51:19.830Z,1010.92
2017-02-06T04:52:30.552Z,1010.93
2017-02-06T04:53:41.573Z,1010.95
2017-02-06T04:54:51.906Z,1010.97
2017-02-06T04:56:02.236Z,1011.01
2017-02-06T04:57:12.556Z,1011
2017-02-06T04:58:22.866Z,1011.02
2017-02-06T04:59:33.830Z,1011.01
2017-02-06T05:00:44.550Z,1011.02
2017-02-06T05:01:55.269Z,1011.02
2017-02-06T05:03:05.187Z,1011.06
2017-02-06T05:04:15.913Z,1011.05
2017-02-06T05:05:26.479Z,1011.04
2017-02-06T05:06:36.795Z,1011.04
2017-02-06T05:07:47.506Z,1011.09
2017-02-06T05:08:57.820Z,1011.07
2017-02-06T05:10:07.740Z,1011.12
2017-02-06T05:11:18.357Z,1011.15
2017-02-06T05:12:29.065Z,1011.15
2017-02-06T05:13:39.769Z,1011.2
2017-02-06T05:14:50.491Z,1011.14
2017-02-06T05:16:01.203Z,1011.13
2017-02-06T05:17:12.211Z,1011.15
2017-02-06T05:18:22.538Z,1011.19
2017-02-06T05:19:33.250Z,1011.2
2017-02-06T05:20:43.561Z,1011.22
2017-02-06T05:21:53.094Z,1011.2
2017-02-06T05:23:03.721Z,1011.24
2017-02-06T05:24:13.652Z,1011.25
2017-02-06T05:25:23.981Z,1011.27
2017-02-06T05:26:34.696Z,1011.3
2017-02-06T05:27:45.005Z,1011.3
2017-02-06T05:28:55.972Z,1011.3
2017-02-06T05:30:06.298Z,1011.35
2017-02-06T05:31:16.224Z,1011.34
2017-02-06T05:32:26.948Z,1011.35
2017-02-06T05:33:37.661Z,1011.36
2017-02-06T05:34:48.618Z,1011.34
2017-02-06T05:35:59.331Z,1011.36
2017-02-06T05:37:08.471Z,1011.35
2017-02-06T05:38:18.398Z,1011.35
2017-02-06T05:39:28.729Z,1011.39
2017-02-06T05:40:39.297Z,1011.38
2017-02-06T05:41:50.017Z,1011.39
2017-02-06T05:43:00.740Z,1011.45
2017-02-06T05:44:10.675Z,1011.46
2017-02-06T05:45:20.992Z,1011.46
2017-02-06T05:46:31.958Z,1011.46
2017-02-06T05:47:42.274Z,1011.45
2017-02-06T05:48:52.202Z,1011.44
2017-02-06T05:50:02.528Z,1011.5
2017-02-06T05:51:12.849Z,1011.51
2017-02-06T05:52:23.817Z,1011.49
2017-02-06T05:53:34.145Z,1011.5
2017-02-06T05:54:44.454Z,1011.52
2017-02-06T05:55:54.783Z,1011.51
2017-02-06T05:57:05.096Z,1011.49
2017-02-06T05:58:16.105Z,1011.51
2017-02-06T05:59:26.869Z,1011.53
2017-02-06T06:00:37.582Z,1011.52
2017-02-06T06:01:48.299Z,1011.53
2017-02-06T06:02:58.626Z,1011.55
2017-02-06T06:04:09.215Z,1011.57
2017-02-06T06:05:19.541Z,1011.59
2017-02-06T06:06:29.867Z,1011.65
2017-02-06T06:07:40.571Z,1011.62
2017-02-06T06:08:50.901Z,1011.63
2017-02-06T06:10:01.475Z,1011.71
2017-02-06T06:11:11.807Z,1011.67
2017-02-06T06:12:21.336Z,1011.66
2017-02-06T06:13:31.647Z,1011.7
2017-02-06T06:14:41.992Z,1011.71
2017-02-06T06:15:52.620Z,1011.69
2017-02-06T06:17:02.546Z,1011.75
2017-02-06T06:18:13.263Z,1011.77
2017-02-06T06:19:23.993Z,1011.81
2017-02-06T06:20:34.725Z,1011.76
2017-02-06T06:21:45.746Z,1011.8
2017-02-06T06:22:55.686Z,1011.77
2017-02-06T06:24:06.009Z,1011.81
2017-02-06T06:25:16.728Z,1011.83
2017-02-06T06:26:27.037Z,1011.81
2017-02-06T06:27:38.018Z,1011.84
2017-02-06T06:28:48.733Z,1011.88
2017-02-06T06:29:58.661Z,1011.89
2017-02-06T06:31:08.596Z,1011.89
2017-02-06T06:32:18.950Z,1011.92
2017-02-06T06:33:29.930Z,1011.93
2017-02-06T06:34:40.662Z,1011.97
2017-02-06T06:35:51.430Z,1012.01
2017-02-06T06:37:01.776Z,1012.02
2017-02-06T06:38:12.106Z,1012.04
2017-02-06T06:39:22.704Z,1012.09
2017-02-06T06:40:32.638Z,1012.05
2017-02-06T06:41:43.365Z,1012.07
2017-02-06T06:42:53.302Z,1012.08
2017-02-06T06:44:04.022Z,1012.06
2017-02-06T06:45:14.646Z,1012.07
2017-02-06T06:46:24.569Z,1012.11
2017-02-06T06:47:34.119Z,1012.12
2017-02-06T06:48:44.864Z,1012.13
2017-02-06T06:49:55.197Z,1012.18
2017-02-06T06:51:05.790Z,1012.17
2017-02-06T06:52:16.128Z,1012.21
2017-02-06T06:53:26.847Z,1012.27
2017-02-06T06:54:37.600Z,1012.29
2017-02-06T06:55:48.339Z,1012.34
2017-02-06T06:56:58.934Z,1012.35
2017-02-06T06:58:08.463Z,1012.35
2017-02-06T06:59:17.994Z,1012.35
2017-02-06T07:00:27.642Z,1012.4
2017-02-06T07:01:38.387Z,1012.43
2017-02-06T07:02:48.573Z,1012.48
2017-02-06T07:03:58.506Z,1012.48
2017-02-06T07:05:08.828Z,1012.45
2017-02-06T07:06:19.148Z,1012.51
2017-02-06T07:07:29.872Z,1012.52
2017-02-06T07:08:40.845Z,1012.5
2017-02-06T07:09:51.175Z,1012.51
2017-02-06T07:11:01.501Z,1012.55
2017-02-06T07:12:11.818Z,1012.54
2017-02-06T07:13:21.744Z,1012.55
2017-02-06T07:14:32.749Z,1012.59
2017-02-06T07:15:43.065Z,1012.61
2017-02-06T07:16:53.397Z,1012.65
2017-02-06T07:18:03.757Z,1012.7
2017-02-06T07:19:14.499Z,1012.72
2017-02-06T07:20:25.084Z,1012.79
2017-02-06T07:21:35.805Z,1012.81
2017-02-06T07:22:46.127Z,1012.8
2017-02-06T07:23:56.493Z,1012.79
2017-02-06T07:25:07.219Z,1012.82
2017-02-06T07:26:18.211Z,1012.8
2017-02-06T07:27:28.971Z,1012.88
2017-02-06T07:28:39.683Z,1012.95
2017-02-06T07:29:50.067Z,1012.94
2017-02-06T07:31:00.432Z,1012.97
2017-02-06T07:32:11.415Z,1012.95
2017-02-06T07:33:21.765Z,1013.06
2017-02-06T07:34:32.511Z,1013.04
2017-02-06T07:35:42.845Z,1013.07
2017-02-06T07:36:53.161Z,1013.06
2017-02-06T07:38:03.402Z,1013.15
2017-02-06T07:39:13.594Z,1013.16
2017-02-06T07:40:23.546Z,1013.17
2017-02-06T07:41:34.293Z,1013.22
2017-02-06T07:42:45.036Z,1013.27
2017-02-06T07:43:55.614Z,1013.31
2017-02-06T07:45:05.972Z,1013.29
2017-02-06T07:46:16.356Z,1013.28
2017-02-06T07:47:26.295Z,1013.24
2017-02-06T07:48:36.682Z,1013.25
2017-02-06T07:49:47.346Z,1013.31
2017-02-06T07:50:57.689Z,1013.28
2017-02-06T07:52:08.420Z,1013.26
2017-02-06T07:53:19.142Z,1013.29
2017-02-06T07:54:29.068Z,1013.32
2017-02-06T07:55:39.639Z,1013.37
2017-02-06T07:56:49.971Z,1013.4
2017-02-06T07:57:59.907Z,1013.45
2017-02-06T07:59:10.253Z,1013.47
2017-02-06T08:00:20.982Z,1013.51
2017-02-06T08:01:31.612Z,1013.51
2017-02-06T08:02:41.929Z,1013.56
2017-02-06T08:03:51.862Z,1013.57
2017-02-06T08:05:02.185Z,1013.55
2017-02-06T08:06:12.518Z,1013.6
2017-02-06T08:07:23.141Z,1013.59
2017-02-06T08:08:33.878Z,1013.59
2017-02-06T08:09:44.604Z,1013.6
2017-02-06T08:10:55.318Z,1013.6
2017-02-06T08:12:05.247Z,1013.67
2017-02-06T08:13:15.036Z,1013.72
2017-02-06T08:14:24.569Z,1013.71
2017-02-06T08:15:35.297Z,1013.72
2017-02-06T08:16:45.617Z,1013.73
2017-02-06T08:17:55.571Z,1013.68
2017-02-06T08:19:06.554Z,1013.66
2017-02-06T08:20:17.337Z,1013.68
2017-02-06T08:21:26.874Z,1013.74
2017-02-06T08:22:37.219Z,1013.78
2017-02-06T08:23:47.546Z,1013.84
2017-02-06T08:24:57.811Z,1013.87
2017-02-06T08:26:08.147Z,1013.87
2017-02-06T08:27:18.461Z,1013.86
2017-02-06T08:28:28.422Z,1013.92
2017-02-06T08:29:39.340Z,1013.94
2017-02-06T08:30:50.317Z,1013.91
2017-02-06T08:32:01.040Z,1013.91
2017-02-06T08:33:11.375Z,1013.95
2017-02-06T08:34:21.315Z,1013.91
2017-02-06T08:35:31.638Z,1013.99
2017-02-06T08:36:42.362Z,1014.03
2017-02-06T08:37:53.082Z,1014.03
2017-02-06T08:39:03.420Z,1014.1
2017-02-06T08:40:14.143Z,1014.1
2017-02-06T08:41:24.068Z,1014.17
2017-02-06T08:42:35.056Z,1014.16
2017-02-06T08:43:44.991Z,1014.24
2017-02-06T08:44:55.711Z,1014.24
2017-02-06T08:46:05.271Z,1014.3
2017-02-06T08:47:15.596Z,1014.29
2017-02-06T08:48:26.182Z,1014.26
2017-02-06T08:49:36.944Z,1014.29
2017-02-06T08:50:47.699Z,1014.33
2017-02-06T08:51:58.427Z,1014.36
2017-02-06T08:53:09.154Z,1014.33
2017-02-06T08:54:18.983Z,1014.39
2017-02-06T08:55:29.708Z,1014.42
2017-02-06T08:56:39.669Z,1014.44
2017-02-06T08:57:50.034Z,1014.47
2017-02-06T08:59:00.408Z,1014.46
2017-02-06T09:00:11.445Z,1014.53
2017-02-06T09:01:21.849Z,1014.55
2017-02-06T09:02:32.213Z,1014.56
2017-02-06T09:03:42.987Z,1014.51
2017-02-06T09:04:53.765Z,1014.59
2017-02-06T09:06:03.967Z,1014.57
2017-02-06T09:07:14.703Z,1014.6
2017-02-06T09:08:24.396Z,1014.59
2017-02-06T09:09:34.773Z,1014.64
2017-02-06T09:10:45.298Z,1014.62
2017-02-06T09:11:55.615Z,1014.64
2017-02-06T09:13:05.993Z,1014.69
2017-02-06T09:14:16.703Z,1014.63
2017-02-06T09:15:27.428Z,1014.64
2017-02-06T09:16:38.194Z,1014.69
2017-02-06T09:17:48.775Z,1014.72
2017-02-06T09:18:59.765Z,1014.7
2017-02-06T09:20:10.489Z,1014.71
2017-02-06T09:21:20.803Z,1014.78
2017-02-06T09:22:30.344Z,1014.76
2017-02-06T09:23:40.955Z,1014.82
2017-02-06T09:24:50.529Z,1014.87
2017-02-06T09:26:00.542Z,1014.87
2017-02-06T09:27:11.318Z,1014.89
2017-02-06T09:28:21.659Z,1014.87
2017-02-06T09:29:32.642Z,1014.9
2017-02-06T09:30:42.968Z,1014.9
2017-02-06T09:31:53.321Z,1014.94
2017-02-06T09:33:03.646Z,1014.98
2017-02-06T09:34:13.590Z,1015.02
2017-02-06T09:35:23.923Z,1015.02
2017-02-06T09:36:34.979Z,1015.06
2017-02-06T09:37:45.314Z,1015.05
2017-02-06T09:38:55.650Z,1015.1
2017-02-06T09:40:05.920Z,1015.09
2017-02-06T09:41:16.680Z,1015.11
2017-02-06T09:42:27.438Z,1015.16
2017-02-06T09:43:37.775Z,1015.18
2017-02-06T09:44:48.098Z,1015.22
2017-02-06T09:45:58.345Z,1015.24
2017-02-06T09:47:08.312Z,1015.26
2017-02-06T09:48:18.651Z,1015.28
2017-02-06T09:49:28.978Z,1015.27
2017-02-06T09:50:38.903Z,1015.33
2017-02-06T09:51:48.858Z,1015.35
2017-02-06T09:52:59.595Z,1015.34
2017-02-06T09:54:09.535Z,1015.34
2017-02-06T09:55:19.474Z,1015.4
2017-02-06T09:56:30.058Z,1015.33
2017-02-06T09:57:40.405Z,1015.41
2017-02-06T09:58:50.728Z,1015.33
2017-02-06T10:00:00.660Z,1015.33
2017-02-06T10:01:11.390Z,1015.32
2017-02-06T10:02:21.969Z,1015.28
2017-02-06T10:03:32.292Z,1015.29
2017-02-06T10:04:42.228Z,1015.26
2017-02-06T10:05:52.944Z,1015.25
2017-02-06T10:07:03.283Z,1015.32
2017-02-06T10:08:14.276Z,1015.33
2017-02-06T10:09:24.214Z,1015.4
2017-02-06T10:10:34.948Z,1015.35
2017-02-06T10:11:45.680Z,1015.33
2017-02-06T10:12:56.410Z,1015.35
2017-02-06T10:14:07.401Z,1015.29
2017-02-06T10:15:18.126Z,1015.29
2017-02-06T10:16:28.448Z,1015.3
2017-02-06T10:17:39.191Z,1015.26
2017-02-06T10:18:49.911Z,1015.36
2017-02-06T10:20:00.898Z,1015.35
2017-02-06T10:21:10.821Z,1015.37
2017-02-06T10:22:21.554Z,1015.47
2017-02-06T10:23:31.116Z,1015.43
2017-02-06T10:24:41.459Z,1015.43
2017-02-06T10:25:52.063Z,1015.51
2017-02-06T10:27:02.377Z,1015.48
2017-02-06T10:28:11.906Z,1015.46
2017-02-06T10:29:21.839Z,1015.53
2017-02-06T10:30:32.566Z,1015.48
2017-02-06T10:31:42.746Z,1015.5
2017-02-06T10:32:53.471Z,1015.53
2017-02-06T10:34:03.810Z,1015.56
2017-02-06T10:35:13.362Z,1015.51
2017-02-06T10:36:23.727Z,1015.52
2017-02-06T10:37:34.770Z,1015.61
2017-02-06T10:38:44.908Z,1015.56
2017-02-06T10:39:55.660Z,1015.58
2017-02-06T10:41:05.618Z,1015.59
2017-02-06T10:42:16.376Z,1015.62
2017-02-06T10:43:27.399Z,1015.63
2017-02-06T10:44:38.132Z,1015.68
2017-02-06T10:45:48.870Z,1015.74
2017-02-06T10:46:59.637Z,1015.77
2017-02-06T10:48:09.198Z,1015.82
2017-02-06T10:49:19.469Z,1015.82
2017-02-06T10:50:30.259Z,1015.82
2017-02-06T10:51:39.823Z,1015.82
2017-02-06T10:52:50.149Z,1015.84
2017-02-06T10:54:00.496Z,1015.79
2017-02-06T10:55:11.091Z,1015.77
2017-02-06T10:56:21.881Z,1015.8
2017-02-06T10:57:32.213Z,1015.78
2017-02-06T10:58:42.950Z,1015.77
2017-02-06T10:59:53.177Z,1015.78
2017-02-06T11:01:03.525Z,1015.74
2017-02-06T11:02:14.274Z,1015.69
2017-02-06T11:03:24.271Z,1015.75
2017-02-06T11:04:35.014Z,1015.78
2017-02-06T11:05:45.219Z,1015.77
2017-02-06T11:06:55.951Z,1015.8
2017-02-06T11:08:05.899Z,1015.79
2017-02-06T11:09:16.625Z,1015.8
2017-02-06T11:10:27.375Z,1015.74
2017-02-06T11:11:38.361Z,1015.8
2017-02-06T11:12:48.316Z,1015.82
2017-02-06T11:13:59.074Z,1015.83
2017-02-06T11:15:09.015Z,1015.78
2017-02-06T11:16:19.750Z,1015.81
2017-02-06T11:17:30.346Z,1015.81
2017-02-06T11:18:40.700Z,1015.79
2017-02-06T11:19:51.037Z,1015.79
2017-02-06T11:21:01.390Z,1015.76
2017-02-06T11:22:11.746Z,1015.83
2017-02-06T11:23:22.365Z,1015.79
2017-02-06T11:24:32.306Z,1015.83
2017-02-06T11:25:42.643Z,1015.82
2017-02-06T11:26:52.991Z,1015.81
2017-02-06T11:28:03.369Z,1015.87
2017-02-06T11:29:14.442Z,1015.9
2017-02-06T11:30:24.819Z,1015.94
2017-02-06T11:31:34.770Z,1015.88
2017-02-06T11:32:45.110Z,1015.87
2017-02-06T11:33:55.840Z,1015.84
2017-02-06T11:35:06.884Z,1015.87
2017-02-06T11:36:17.229Z,1015.82
2017-02-06T11:37:27.966Z,1015.81
2017-02-06T11:38:38.691Z,1015.74
2017-02-06T11:39:49.017Z,1015.69
2017-02-06T11:40:59.274Z,1015.72
2017-02-06T11:42:09.626Z,1015.73
2017-02-06T11:43:20.380Z,1015.82
2017-02-06T11:44:30.721Z,1015.84
2017-02-06T11:45:41.098Z,1015.89
2017-02-06T11:46:52.131Z,1015.91
2017-02-06T11:48:02.070Z,1015.92
2017-02-06T11:49:12.410Z,1015.93
2017-02-06T11:50:23.146Z,1015.91
2017-02-06T11:51:33.967Z,1015.97
2017-02-06T11:52:44.947Z,1015.97
2017-02-06T11:53:55.289Z,1015.97
2017-02-06T11:55:05.614Z,1015.94
2017-02-06T11:56:15.968Z,1015.96
2017-02-06T11:57:26.299Z,1015.99
2017-02-06T11:58:37.312Z,1015.97
2017-02-06T11:59:48.090Z,1015.99
2017-02-06T12:00:58.437Z,1015.98
2017-02-06T12:02:08.384Z,1016
2017-02-06T12:03:18.723Z,1016.01
2017-02-06T12:04:28.906Z,1016
2017-02-06T12:05:39.646Z,1015.99
2017-02-06T12:06:49.975Z,1016.05
2017-02-06T12:08:00.708Z,1016.05
2017-02-06T12:09:11.440Z,1016.08
2017-02-06T12:10:22.438Z,1016.11
2017-02-06T12:11:33.167Z,1016.04
2017-02-06T12:12:43.498Z,1016.04
2017-02-06T12:13:54.240Z,1016.03
2017-02-06T12:15:04.573Z,1016.02
2017-02-06T12:16:15.147Z,1016.02
2017-02-06T12:17:25.857Z,1016.08
2017-02-06T12:18:36.574Z,1016.02
2017-02-06T12:19:47.300Z,1016.03
2017-02-06T12:20:57.634Z,1016.05
2017-02-06T12:22:08.483Z,1016.09
2017-02-06T12:23:19.232Z,1016.05
2017-02-06T12:24:29.974Z,1016.12
2017-02-06T12:25:40.717Z,1016.13
2017-02-06T12:26:51.038Z,1016.1
2017-02-06T12:28:02.057Z,1016.15
2017-02-06T12:29:12.003Z,1016.21
2017-02-06T12:30:22.750Z,1016.2
2017-02-06T12:31:33.094Z,1016.24
2017-02-06T12:32:43.416Z,1016.21
2017-02-06T12:33:54.142Z,1016.2
2017-02-06T12:35:04.462Z,1016.26
2017-02-06T12:36:14.397Z,1016.23
2017-02-06T12:37:25.153Z,1016.23
2017-02-06T12:38:36.136Z,1016.17
2017-02-06T12:39:46.873Z,1016.23
2017-02-06T12:40:57.210Z,1016.25
2017-02-06T12:42:07.556Z,1016.21
2017-02-06T12:43:18.277Z,1016.2
2017-02-06T12:44:28.859Z,1016.19
2017-02-06T12:45:39.646Z,1016.17
2017-02-06T12:46:50.367Z,1016.18
2017-02-06T12:48:00.315Z,1016.12
2017-02-06T12:49:11.157Z,1016.12
2017-02-06T12:50:22.142Z,1016.16
2017-02-06T12:51:32.479Z,1016.2
2017-02-06T12:52:42.801Z,1016.24
2017-02-06T12:53:53.156Z,1016.24
2017-02-06T12:55:03.480Z,1016.19
2017-02-06T12:56:14.811Z,1016.16
2017-02-06T12:57:25.545Z,1016.19
2017-02-06T12:58:36.267Z,1016.25
2017-02-06T12:59:46.992Z,1016.25
2017-02-06T13:00:56.917Z,1016.27
2017-02-06T13:02:07.111Z,1016.23
2017-02-06T13:03:17.071Z,1016.21
2017-02-06T13:04:27.817Z,1016.21
2017-02-06T13:05:37.755Z,1016.24
2017-02-06T13:06:48.501Z,1016.25
2017-02-06T13:07:59.217Z,1016.21
2017-02-06T13:09:09.949Z,1016.21
2017-02-06T13:10:19.896Z,1016.12
2017-02-06T13:11:30.235Z,1016.15
2017-02-06T13:12:40.977Z,1016.11
2017-02-06T13:13:51.582Z,1016.08
2017-02-06T13:15:01.920Z,1016.05
2017-02-06T13:16:12.250Z,1016.04
2017-02-06T13:17:22.593Z,1016.09
2017-02-06T13:18:33.240Z,1016.05
2017-02-06T13:19:43.993Z,1016.11
2017-02-06T13:20:54.731Z,1016.15
2017-02-06T13:22:05.521Z,1016.18
2017-02-06T13:23:15.844Z,1016.2
2017-02-06T13:24:26.416Z,1016.19
2017-02-06T13:25:36.743Z,1016.24
2017-02-06T13:26:47.483Z,1016.27
2017-02-06T13:27:57.025Z,1016.26
2017-02-06T13:29:07.363Z,1016.26
2017-02-06T13:30:17.995Z,1016.24
2017-02-06T13:31:27.946Z,1016.21
2017-02-06T13:32:38.663Z,1016.2
2017-02-06T13:33:49.431Z,1016.25
2017-02-06T13:35:00.379Z,1016.28
2017-02-06T13:36:11.036Z,1016.28
2017-02-06T13:37:21.426Z,1016.26
2017-02-06T13:38:31.783Z,1016.33
2017-02-06T13:39:41.722Z,1016.29
2017-02-06T13:40:51.674Z,1016.31
2017-02-06T13:42:02.296Z,1016.36
2017-02-06T13:43:13.041Z,1016.34
2017-02-06T13:44:23.175Z,1016.38
2017-02-06T13:45:33.512Z,1016.37
2017-02-06T13:46:44.272Z,1016.41
2017-02-06T13:47:54.836Z,1016.4
2017-02-06T13:49:05.182Z,1016.3
2017-02-06T13:50:14.752Z,1016.38
2017-02-06T13:51:25.485Z,1016.39
2017-02-06T13:52:36.292Z,1016.37
2017-02-06T13:53:46.467Z,1016.44
2017-02-06T13:54:56.418Z,1016.49
2017-02-06T13:56:06.339Z,1016.56
2017-02-06T13:57:17.076Z,1016.61
2017-02-06T13:58:27.012Z,1016.58
2017-02-06T13:59:38.041Z,1016.56
2017-02-06T14:00:48.746Z,1016.59
2017-02-06T14:01:59.466Z,1016.59
2017-02-06T14:03:09.409Z,1016.61
2017-02-06T14:04:20.135Z,1016.65
2017-02-06T14:05:31.100Z,1016.63
2017-02-06T14:06:41.032Z,1016.67
2017-02-06T14:07:51.756Z,1016.67
2017-02-06T14:09:01.702Z,1016.7
2017-02-06T14:10:12.033Z,1016.74
2017-02-06T14:11:22.906Z,1016.71
2017-02-06T14:12:33.645Z,1016.77
2017-02-06T14:13:44.390Z,1016.72
2017-02-06T14:14:53.929Z,1016.74